Time;durP1;ratioP1;P1;durP2;ratioP2;P2;SDS_P1;SDS_P2;PMS_P1;PMS_P2;Temp;Humidity;BMP_temperature;BMP_pressure;BME280_temperature;BME280_humidity;BME280_pressure;Samples;Min_cycle;Max_cycle;Signal;HPM_P1;HPM_P2
2021/01/27 00:00:50;;;;;;;;;;;;;;;15.54;36.23;100181.38;4416920;32;19958;-46
2021/01/27 00:03:16;;;;;;;;;;;;;;;15.50;36.30;100176.88;4410345;32;19992;-47
2021/01/27 00:05:42;;;;;;;;;;;;;;;15.49;36.29;100169.81;4405083;32;20401;-48
2021/01/27 00:08:08;;;;;;;;;;;;;;;15.53;36.21;100161.22;4416288;32;20022;-44
2021/01/27 00:10:34;;;;;;;;;;;;;;;15.55;36.17;100162.13;4417072;32;19946;-48
2021/01/27 00:13:00;;;;;;;;;;;;;;;15.55;36.19;100156.88;4417152;32;20303;-43
2021/01/27 00:15:26;;;;;;;;;;;;;;;15.56;36.15;100154.31;4416553;32;19966;-46
2021/01/27 00:17:51;;;;;;;;;;;;;;;15.49;36.27;100167.19;4417326;32;20455;-47
2021/01/27 00:20:17;;;;;;;;;;;;;;;15.44;36.37;100154.84;4415949;32;19950;-48
2021/01/27 00:22:43;;;;;;;;;;;;;;;15.49;36.29;100164.56;4416345;32;19974;-47
2021/01/27 00:25:09;;;;;;;;;;;;;;;15.51;36.25;100170.78;4401696;32;20325;-46
2021/01/27 00:27:35;;;;;;;;;;;;;;;15.56;36.13;100169.16;4402095;32;19965;-48
2021/01/27 00:30:01;;;;;;;;;;;;;;;15.48;36.27;100166.31;4416309;32;19969;-44
2021/01/27 00:32:28;;;;;;;;;;;;;;;15.55;36.14;100156.88;4416813;32;19954;-47
2021/01/27 00:34:54;;;;;;;;;;;;;;;15.51;36.23;100150.66;4403346;32;19995;-47
2021/01/27 00:37:19;;;;;;;;;;;;;;;15.55;36.17;100151.63;4402625;32;19958;-43
2021/01/27 00:39:46;;;;;;;;;;;;;;;15.55;36.17;100151.63;4416335;32;19958;-47
2021/01/27 00:42:11;;;;;;;;;;;;;;;15.57;36.11;100149.94;4416343;32;19980;-46
2021/01/27 00:44:37;;;;;;;;;;;;;;;15.58;36.07;100143.84;4416915;32;19943;-46
2021/01/27 00:47:03;;;;;;;;;;;;;;;15.53;36.20;100137.59;4416858;32;19949;-44
2021/01/27 00:49:29;;;;;;;;;;;;;;;15.54;36.17;100134.12;4407027;32;19951;-45
2021/01/27 00:51:55;;;;;;;;;;;;;;;15.54;36.15;100132.37;4401105;32;20324;-48
2021/01/27 00:54:21;;;;;;;;;;;;;;;15.53;36.15;100125.34;4409435;32;20000;-45
2021/01/27 00:56:47;;;;;;;;;;;;;;;15.54;36.14;100128.87;4416790;32;19961;-50
2021/01/27 00:59:13;;;;;;;;;;;;;;;15.55;36.11;100131.50;4409305;32;20329;-45
2021/01/27 01:01:39;;;;;;;;;;;;;;;15.49;36.25;100140.94;4402171;32;19951;-43
2021/01/27 01:04:05;;;;;;;;;;;;;;;15.53;36.18;100142.84;4406904;32;19980;-50
2021/01/27 01:06:30;;;;;;;;;;;;;;;15.56;36.12;100143.81;4416210;32;20329;-44
2021/01/27 01:08:56;;;;;;;;;;;;;;;15.48;36.23;100142.69;4416609;32;19968;-50
2021/01/27 01:11:22;;;;;;;;;;;;;;;15.51;36.19;100145.41;4420118;32;23106;-44
2021/01/27 01:13:48;;;;;;;;;;;;;;;15.55;36.15;100146.41;4419616;32;19975;-47
2021/01/27 01:16:14;;;;;;;;;;;;;;;15.53;36.14;100148.97;4419167;32;19954;-46
2021/01/27 01:18:40;;;;;;;;;;;;;;;15.52;36.19;100141.94;4418499;32;19973;-46
2021/01/27 01:21:06;;;;;;;;;;;;;;;15.52;36.18;100130.56;4403184;32;20308;-50
2021/01/27 01:23:31;;;;;;;;;;;;;;;15.52;36.18;100130.56;4404664;32;19962;-45
2021/01/27 01:25:57;;;;;;;;;;;;;;;15.51;36.20;100129.66;4419654;32;19954;-43
2021/01/27 01:28:23;;;;;;;;;;;;;;;15.49;36.21;100125.19;4418828;32;19962;-46
2021/01/27 01:30:49;;;;;;;;;;;;;;;15.51;36.19;100123.53;4405230;32;19992;-43
2021/01/27 01:33:15;;;;;;;;;;;;;;;15.53;36.20;100121.84;4403707;32;20002;-45
2021/01/27 01:35:41;;;;;;;;;;;;;;;15.49;36.20;100138.31;4415872;32;19974;-46
2021/01/27 01:38:07;;;;;;;;;;;;;;;15.49;36.21;100130.44;4419190;32;19962;-45
2021/01/27 01:40:33;;;;;;;;;;;;;;;15.49;36.19;100120.88;4411020;32;19962;-45
2021/01/27 01:42:58;;;;;;;;;;;;;;;15.53;36.13;100109.59;4419332;32;19990;-46
2021/01/27 01:45:24;;;;;;;;;;;;;;;15.48;36.20;100115.56;4409015;32;19977;-44
2021/01/27 01:47:50;;;;;;;;;;;;;;;15.46;36.28;100126.91;4404101;32;20369;-47
2021/01/27 01:50:16;;;;;;;;;;;;;;;15.52;36.16;100106.94;4409892;32;19962;-48
2021/01/27 01:52:42;;;;;;;;;;;;;;;15.52;36.14;100099.06;4419040;32;19938;-47
2021/01/27 01:55:08;;;;;;;;;;;;;;;15.51;36.16;100092.91;4411943;32;19954;-47
2021/01/27 01:57:34;;;;;;;;;;;;;;;15.43;36.29;100090.09;4403952;32;20359;-42
2021/01/27 02:00:00;;;;;;;;;;;;;;;15.45;36.26;100087.50;4408705;32;19954;-49
2021/01/27 02:02:26;;;;;;;;;;;;;;;15.49;36.20;100085.84;4419085;32;20096;-48
2021/01/27 02:04:52;;;;;;;;;;;;;;;15.49;36.19;100089.38;4414695;32;19950;-44
2021/01/27 02:07:17;;;;;;;;;;;;;;;15.53;36.13;100090.34;4403454;32;20339;-43
2021/01/27 02:09:43;;;;;;;;;;;;;;;15.50;36.15;100090.28;4406234;32;19946;-47
2021/01/27 02:12:09;;;;;;;;;;;;;;;15.49;36.17;100094.63;4417992;32;19982;-46
2021/01/27 02:14:35;;;;;;;;;;;;;;;15.49;36.16;100102.50;4417542;32;20338;-46
2021/01/27 02:17:01;;;;;;;;;;;;;;;15.45;36.20;100088.37;4403394;32;20294;-46
2021/01/27 02:19:27;;;;;;;;;;;;;;;15.48;36.22;100094.56;4402162;32;19958;-49
2021/01/27 02:21:53;;;;;;;;;;;;;;;15.46;36.23;100094.53;4417803;32;19954;-49
2021/01/27 02:24:19;;;;;;;;;;;;;;;15.49;36.15;100089.38;4418486;32;20069;-45
2021/01/27 02:26:45;;;;;;;;;;;;;;;15.48;36.19;100092.84;4404560;32;19954;-45
2021/01/27 02:29:11;;;;;;;;;;;;;;;15.45;36.22;100092.75;4403003;32;19948;-46
2021/01/27 02:31:37;;;;;;;;;;;;;;;15.47;36.19;100088.44;4415984;32;20350;-46
2021/01/27 02:34:03;;;;;;;;;;;;;;;15.52;36.11;100080.69;4418178;32;19950;-46
2021/01/27 02:36:29;;;;;;;;;;;;;;;15.52;36.10;100078.94;4407089;32;19950;-48
2021/01/27 02:38:55;;;;;;;;;;;;;;;15.52;36.10;100080.69;4402855;32;19950;-46
2021/01/27 02:41:20;;;;;;;;;;;;;;;15.49;36.17;100089.38;4412345;32;20282;-47
2021/01/27 02:43:46;;;;;;;;;;;;;;;15.47;36.17;100080.56;4418398;32;19962;-49
2021/01/27 02:46:12;;;;;;;;;;;;;;;15.47;36.18;100085.81;4418020;32;19951;-43
2021/01/27 02:48:38;;;;;;;;;;;;;;;15.41;36.28;100086.53;4417620;32;19979;-47
2021/01/27 02:51:04;;;;;;;;;;;;;;;15.45;36.19;100085.75;4410384;32;19964;-45
2021/01/27 02:53:30;;;;;;;;;;;;;;;15.44;36.22;100086.59;4403720;32;20335;-47
2021/01/27 02:55:56;;;;;;;;;;;;;;;15.48;36.17;100081.44;4408563;32;19982;-45
2021/01/27 02:58:22;;;;;;;;;;;;;;;15.51;36.08;100081.56;4417556;32;20022;-48
2021/01/27 03:00:47;;;;;;;;;;;;;;;15.45;36.20;100072.62;4413678;32;20032;-44
2021/01/27 03:03:13;;;;;;;;;;;;;;;15.46;36.16;100066.53;4402995;32;19951;-45
2021/01/27 03:05:39;;;;;;;;;;;;;;;15.46;36.17;100061.28;4405118;32;20057;-42
2021/01/27 03:08:05;;;;;;;;;;;;;;;15.44;36.22;100060.38;4418013;32;19950;-43
2021/01/27 03:10:31;;;;;;;;;;;;;;;15.45;36.18;100064.75;4416878;32;20290;-46
2021/01/27 03:12:57;;;;;;;;;;;;;;;15.48;36.14;100056.09;4404275;32;19969;-49
2021/01/27 03:15:23;;;;;;;;;;;;;;;15.49;36.12;100068.38;4417385;32;20800;-45
2021/01/27 03:17:49;;;;;;;;;;;;;;;15.46;36.13;100060.44;4417855;32;19986;-48
2021/01/27 03:20:14;;;;;;;;;;;;;;;15.44;36.18;100049.88;4416700;32;19965;-47
2021/01/27 03:22:40;;;;;;;;;;;;;;;15.49;36.12;100042.12;4418076;32;20006;-49
2021/01/27 03:25:06;;;;;;;;;;;;;;;15.49;36.12;100039.50;4417498;32;19968;-49
2021/01/27 03:27:32;;;;;;;;;;;;;;;15.48;36.14;100039.44;4405828;32;19966;-48
2021/01/27 03:29:58;;;;;;;;;;;;;;;15.50;36.07;100033.41;4402051;32;19962;-45
2021/01/27 03:32:24;;;;;;;;;;;;;;;15.51;36.08;100031.69;4412743;32;20279;-44
2021/01/27 03:34:50;;;;;;;;;;;;;;;15.43;36.24;100027.09;4417227;32;19988;-43
2021/01/27 03:37:16;;;;;;;;;;;;;;;15.43;36.21;100019.22;4407838;32;19961;-48
2021/01/27 03:39:42;;;;;;;;;;;;;;;15.43;36.23;100011.34;4402503;32;19954;-43
2021/01/27 03:42:08;;;;;;;;;;;;;;;15.46;36.20;100011.44;4410199;32;20507;-47
2021/01/27 03:44:34;;;;;;;;;;;;;;;15.46;36.11;100003.56;4417267;32;19958;-44
2021/01/27 03:47:00;;;;;;;;;;;;;;;15.41;36.24;100006.91;4417996;32;19955;-47
2021/01/27 03:49:26;;;;;;;;;;;;;;;15.48;36.12;100007.97;4416112;32;19973;-44
2021/01/27 03:51:52;;;;;;;;;;;;;;;15.46;36.16;100000.94;4417138;32;19968;-47
2021/01/27 03:54:18;;;;;;;;;;;;;;;15.48;36.10;100003.63;4417400;32;19954;-44
2021/01/27 03:56:44;;;;;;;;;;;;;;;15.44;36.18;100010.50;4413292;32;19950;-45
2021/01/27 03:59:10;;;;;;;;;;;;;;;15.44;36.18;100002.63;4401345;32;20539;-44
2021/01/27 04:01:35;;;;;;;;;;;;;;;15.45;36.13;100001.78;4404766;32;19953;-44
2021/01/27 04:04:01;;;;;;;;;;;;;;;15.43;36.18;99993.00;4417916;32;19950;-46
2021/01/27 04:06:27;;;;;;;;;;;;;;;15.47;36.08;100001.84;4414908;32;20341;-49
2021/01/27 04:08:53;;;;;;;;;;;;;;;15.46;36.11;100006.19;4402003;32;20022;-43
2021/01/27 04:11:19;;;;;;;;;;;;;;;15.45;36.11;99999.16;4402155;32;19990;-51
2021/01/27 04:13:45;;;;;;;;;;;;;;;15.46;36.10;99993.06;4416925;32;19969;-47
2021/01/27 04:16:11;;;;;;;;;;;;;;;15.42;36.13;99999.09;4416590;32;19996;-46
2021/01/27 04:18:37;;;;;;;;;;;;;;;15.41;36.20;99997.31;4416990;32;20395;-46
2021/01/27 04:21:03;;;;;;;;;;;;;;;15.46;36.09;99984.31;4416622;32;19981;-48
2021/01/27 04:23:28;;;;;;;;;;;;;;;15.42;36.14;99982.44;4404771;32;19950;-47
2021/01/27 04:25:54;;;;;;;;;;;;;;;15.41;36.22;99989.44;4402145;32;20009;-44
2021/01/27 04:28:20;;;;;;;;;;;;;;;15.37;36.27;99984.97;4412486;32;19946;-46
2021/01/27 04:30:46;;;;;;;;;;;;;;;15.39;36.23;99983.28;4417420;32;19985;-44
2021/01/27 04:33:12;;;;;;;;;;;;;;;15.44;36.11;99971.16;4407351;32;19951;-44
2021/01/27 04:35:38;;;;;;;;;;;;;;;15.44;36.16;99968.53;4401072;32;20008;-44
2021/01/27 04:38:04;;;;;;;;;;;;;;;15.48;36.08;99960.72;4410397;32;19965;-47
2021/01/27 04:40:30;;;;;;;;;;;;;;;15.48;36.07;99950.22;4416835;32;19987;-44
2021/01/27 04:42:56;;;;;;;;;;;;;;;15.43;36.17;99947.47;4411460;32;19992;-43
2021/01/27 04:45:22;;;;;;;;;;;;;;;15.43;36.12;99943.13;4419395;32;19946;-47
2021/01/27 04:47:48;;;;;;;;;;;;;;;15.49;36.04;99941.50;4420100;32;20314;-45
2021/01/27 04:50:14;;;;;;;;;;;;;;;15.45;36.10;99936.19;4418817;32;19950;-47
2021/01/27 04:52:39;;;;;;;;;;;;;;;15.43;36.10;99935.25;4416037;32;20001;-45
2021/01/27 04:55:05;;;;;;;;;;;;;;;15.40;36.12;99929.94;4404980;32;19961;-44
2021/01/27 04:57:31;;;;;;;;;;;;;;;15.40;36.16;99922.06;4407450;32;19954;-44
2021/01/27 04:59:57;;;;;;;;;;;;;;;15.37;36.24;99918.47;4419710;32;20339;-48
2021/01/27 05:02:23;;;;;;;;;;;;;;;15.34;36.30;99919.28;4418592;32;20041;-45
2021/01/27 05:04:49;;;;;;;;;;;;;;;15.39;36.22;99909.81;4404801;32;19986;-48
2021/01/27 05:07:15;;;;;;;;;;;;;;;15.31;36.38;99906.09;4403835;32;19954;-45
2021/01/27 05:09:41;;;;;;;;;;;;;;;15.39;36.22;99901.94;4419629;32;19998;-44
2021/01/27 05:12:07;;;;;;;;;;;;;;;15.42;36.14;99894.13;4419710;32;20842;-46
2021/01/27 05:14:32;;;;;;;;;;;;;;;15.47;36.09;99891.63;4416816;32;19986;-48
2021/01/27 05:16:58;;;;;;;;;;;;;;;15.41;36.14;99887.09;4420049;32;19947;-49
2021/01/27 05:19:24;;;;;;;;;;;;;;;15.42;36.19;99882.72;4418436;32;19977;-49
2021/01/27 05:21:50;;;;;;;;;;;;;;;15.42;36.15;99888.88;4419449;32;19958;-46
2021/01/27 05:24:16;;;;;;;;;;;;;;;15.45;36.10;99883.69;4408291;32;20291;-46
2021/01/27 05:26:42;;;;;;;;;;;;;;;15.45;36.11;99883.69;4404629;32;19961;-47
2021/01/27 05:29:08;;;;;;;;;;;;;;;15.45;36.11;99890.69;4413239;32;20024;-47
2021/01/27 05:31:34;;;;;;;;;;;;;;;15.42;36.15;99877.47;4419532;32;19997;-48
2021/01/27 05:34:00;;;;;;;;;;;;;;;15.41;36.16;99873.97;4411218;32;19976;-46
2021/01/27 05:36:25;;;;;;;;;;;;;;;15.36;36.24;99883.47;4403012;32;19959;-45
2021/01/27 05:38:51;;;;;;;;;;;;;;;15.43;36.19;99881.88;4410932;32;19962;-46
2021/01/27 05:41:17;;;;;;;;;;;;;;;15.43;36.15;99889.75;4404511;32;19958;-46
2021/01/27 05:43:43;;;;;;;;;;;;;;;15.41;36.24;99881.84;4410720;32;20369;-43
2021/01/27 05:46:09;;;;;;;;;;;;;;;15.49;36.08;99891.63;4418967;32;20008;-47
2021/01/27 05:48:35;;;;;;;;;;;;;;;15.49;36.05;99894.25;4412766;32;19994;-45
2021/01/27 05:51:01;;;;;;;;;;;;;;;15.43;36.13;99889.75;4409504;32;19950;-44
2021/01/27 05:53:27;;;;;;;;;;;;;;;15.44;36.14;99876.69;4410516;32;19962;-44
2021/01/27 05:55:53;;;;;;;;;;;;;;;15.41;36.22;99873.97;4411789;32;19969;-47
2021/01/27 05:58:19;;;;;;;;;;;;;;;15.41;36.22;99866.13;4410949;32;20012;-45
2021/01/27 06:00:45;;;;;;;;;;;;;;;15.32;36.34;99851.03;4410819;32;20423;-47
2021/01/27 06:03:11;;;;;;;;;;;;;;;15.35;36.32;99855.44;4411344;32;19998;-50
2021/01/27 06:05:37;;;;;;;;;;;;;;;15.40;36.25;99859.09;4410926;32;19992;-45
2021/01/27 06:08:03;;;;;;;;;;;;;;;15.10;36.71;99852.22;4411894;32;20359;-46
2021/01/27 06:10:28;;;;;;;;;;;;;;;15.09;36.83;99842.56;4409454;32;20339;-44
2021/01/27 06:12:54;;;;;;;;;;;;;;;15.30;36.42;99841.34;4412466;32;19951;-49
2021/01/27 06:15:20;;;;;;;;;;;;;;;15.21;36.64;99836.75;4410661;32;19938;-45
2021/01/27 06:17:46;;;;;;;;;;;;;;;15.31;36.49;99832.63;4412103;32;20568;-45
2021/01/27 06:20:12;;;;;;;;;;;;;;;15.39;36.30;99831.09;4409748;32;19969;-45
2021/01/27 06:22:38;;;;;;;;;;;;;;;15.39;36.29;99830.19;4412335;32;20413;-45
2021/01/27 06:25:04;;;;;;;;;;;;;;;15.34;36.37;99827.44;4409880;32;19954;-47
2021/01/27 06:27:29;;;;;;;;;;;;;;;15.35;36.40;99813.47;4411446;32;19951;-44
2021/01/27 06:29:55;;;;;;;;;;;;;;;15.39;36.33;99810.09;4409275;32;20330;-47
2021/01/27 06:32:21;;;;;;;;;;;;;;;15.41;36.30;99808.38;4410814;32;19951;-46
2021/01/27 06:34:47;;;;;;;;;;;;;;;15.42;36.26;99804.00;4411476;32;19968;-45
2021/01/27 06:37:13;;;;;;;;;;;;;;;15.28;36.54;99798.44;4412306;32;19976;-49
2021/01/27 06:39:39;;;;;;;;;;;;;;;15.38;36.39;99792.56;4408412;32;20034;-45
2021/01/27 06:42:05;;;;;;;;;;;;;;;15.37;36.38;99800.41;4411139;32;20366;-47
2021/01/27 06:44:31;;;;;;;;;;;;;;;15.42;36.29;99810.16;4412465;32;19958;-47
2021/01/27 06:46:57;;;;;;;;;;;;;;;15.42;36.30;99819.75;4419612;32;19938;-45
2021/01/27 06:49:22;;;;;;;;;;;;;;;15.44;36.27;99823.31;4415938;32;19991;-45
2021/01/27 06:51:48;;;;;;;;;;;;;;;15.42;36.26;99818.03;4412508;32;20003;-50
2021/01/27 06:54:14;;;;;;;;;;;;;;;15.43;36.23;99811.94;4413877;32;20006;-50
2021/01/27 06:56:40;;;;;;;;;;;;;;;15.42;36.28;99819.75;4414905;32;19968;-46
2021/01/27 06:59:06;;;;;;;;;;;;;;;15.41;36.37;99829.38;4413655;32;19955;-43
2021/01/27 07:01:32;;;;;;;;;;;;;;;15.11;36.93;99819.88;4404132;32;19955;-48
2021/01/27 07:03:58;;;;;;;;;;;;;;;15.07;36.93;99819.78;4401850;32;19968;-43
2021/01/27 07:06:24;;;;;;;;;;;;;;;15.17;36.71;99817.44;4402511;32;19961;-49
2021/01/27 07:08:50;;;;;;;;;;;;;;;15.25;36.60;99816.72;4400303;32;20022;-48
2021/01/27 07:11:16;;;;;;;;;;;;;;;15.29;36.55;99823.84;4413468;32;19972;-52
2021/01/27 07:13:42;;;;;;;;;;;;;;;15.24;36.63;99826.34;4406922;32;19954;-50
2021/01/27 07:16:08;;;;;;;;;;;;;;;15.23;36.66;99828.91;4404018;32;19959;-53
2021/01/27 07:18:34;;;;;;;;;;;;;;;15.20;36.74;99818.34;4410146;32;19976;-50
2021/01/27 07:21:00;;;;;;;;;;;;;;;15.29;36.59;99818.59;4415980;32;19962;-51
2021/01/27 07:23:26;;;;;;;;;;;;;;;15.30;36.57;99808.09;4416496;32;19969;-46
2021/01/27 07:25:52;;;;;;;;;;;;;;;15.33;36.53;99804.69;4416412;32;19980;-47
2021/01/27 07:28:18;;;;;;;;;;;;;;;15.30;36.56;99795.00;4415829;32;19991;-50
2021/01/27 07:30:44;;;;;;;;;;;;;;;15.29;36.59;99787.09;4409186;32;19946;-43
2021/01/27 07:33:10;;;;;;;;;;;;;;;15.37;36.44;99779.41;4401062;32;19973;-43
2021/01/27 07:35:36;;;;;;;;;;;;;;;15.39;36.40;99782.94;4406136;32;19960;-51
2021/01/27 07:38:02;;;;;;;;;;;;;;;15.40;36.39;99793.50;4416760;32;19962;-48
2021/01/27 07:40:28;;;;;;;;;;;;;;;15.40;36.44;99795.22;4411430;32;19966;-52
2021/01/27 07:42:54;;;;;;;;;;;;;;;15.41;36.42;99797.88;4400908;32;19980;-46
2021/01/27 07:45:20;;;;;;;;;;;;;;;15.41;36.42;99800.50;4415594;32;19964;-49
2021/01/27 07:47:46;;;;;;;;;;;;;;;15.40;36.45;99809.25;4416670;32;19961;-48
2021/01/27 07:50:12;;;;;;;;;;;;;;;15.38;36.47;99810.94;4413409;32;19969;-50
2021/01/27 07:52:38;;;;;;;;;;;;;;;15.24;36.75;99805.34;4416597;32;19969;-51
2021/01/27 07:55:04;;;;;;;;;;;;;;;15.27;36.70;99807.19;4416405;32;19958;-51
2021/01/27 07:57:30;;;;;;;;;;;;;;;15.26;36.74;99802.78;4415366;32;19953;-49
2021/01/27 07:59:57;;;;;;;;;;;;;;;15.31;36.64;99796.78;4415534;32;20511;-49
2021/01/27 08:02:23;;;;;;;;;;;;;;;15.36;36.55;99794.25;4398768;32;20046;-49
2021/01/27 08:04:48;;;;;;;;;;;;;;;15.32;36.59;99800.28;4400035;32;20721;-51
2021/01/27 08:07:14;;;;;;;;;;;;;;;15.31;36.64;99796.78;4413216;32;19958;-50
2021/01/27 08:09:43;;;;;;;;;;;;;;;15.28;36.70;99785.34;4415792;32;19970;-49
2021/01/27 08:12:10;;;;;;;;;;;;;;;15.34;36.63;99784.59;4403186;32;20042;-51
2021/01/27 08:14:35;;;;;;;;;;;;;;;15.36;36.57;99789.00;4412757;32;19954;-50
2021/01/27 08:17:01;;;;;;;;;;;;;;;15.28;36.72;99791.44;4415873;32;20356;-50
2021/01/27 08:19:27;;;;;;;;;;;;;;;15.32;36.64;99781.94;4414243;32;19957;-48
2021/01/27 08:21:53;;;;;;;;;;;;;;;15.38;36.58;99770.69;4415883;32;19950;-49
2021/01/27 08:24:19;;;;;;;;;;;;;;;15.35;36.63;99766.25;4416041;32;19993;-44
2021/01/27 08:26:45;;;;;;;;;;;;;;;15.40;36.51;99756.75;4407441;32;19954;-48
2021/01/27 08:29:11;;;;;;;;;;;;;;;15.30;36.72;99752.16;4399879;32;20407;-49
2021/01/27 08:31:37;;;;;;;;;;;;;;;15.29;36.74;99751.25;4407085;32;19964;-43
2021/01/27 08:34:03;;;;;;;;;;;;;;;15.28;36.78;99744.22;4415148;32;20335;-46
2021/01/27 08:36:29;;;;;;;;;;;;;;;15.38;36.56;99734.84;4409069;32;19994;-50
2021/01/27 08:38:55;;;;;;;;;;;;;;;15.33;36.72;99731.22;4399907;32;19988;-49
2021/01/27 08:41:21;;;;;;;;;;;;;;;15.39;36.63;99730.47;4403590;32;20278;-50
2021/01/27 08:43:47;;;;;;;;;;;;;;;15.43;36.60;99743.72;4412902;32;19994;-49
2021/01/27 08:46:12;;;;;;;;;;;;;;;15.43;36.60;99751.56;4410761;32;19970;-47
2021/01/27 08:48:38;;;;;;;;;;;;;;;15.42;36.66;99755.06;4400033;32;19955;-47
2021/01/27 08:51:04;;;;;;;;;;;;;;;15.42;36.66;99747.19;4411858;32;19988;-47
2021/01/27 08:53:30;;;;;;;;;;;;;;;15.45;36.59;99747.25;4400498;32;19955;-46
2021/01/27 08:55:56;;;;;;;;;;;;;;;15.44;36.60;99747.22;4397141;32;19958;-44
2021/01/27 08:58:22;;;;;;;;;;;;;;;15.45;36.59;99747.25;4412729;32;19962;-43
2021/01/27 09:00:49;;;;;;;;;;;;;;;15.48;36.57;99753.41;4415730;32;19958;-46
2021/01/27 09:03:15;;;;;;;;;;;;;;;15.42;36.70;99747.19;4401663;32;19950;-48
2021/01/27 09:05:41;;;;;;;;;;;;;;;15.46;36.62;99749.00;4398447;32;19994;-46
2021/01/27 09:08:07;;;;;;;;;;;;;;;15.48;36.63;99756.03;4403189;32;19954;-46
2021/01/27 09:10:33;;;;;;;;;;;;;;;15.48;36.59;99766.53;4398661;32;19998;-46
2021/01/27 09:12:58;;;;;;;;;;;;;;;15.54;36.44;99764.06;4410647;32;19973;-42
2021/01/27 09:15:24;;;;;;;;;;;;;;;15.49;36.50;99753.44;4415432;32;20306;-46
2021/01/27 09:17:50;;;;;;;;;;;;;;;15.49;36.50;99747.31;4416178;32;19950;-46
2021/01/27 09:20:16;;;;;;;;;;;;;;;15.44;36.59;99745.47;4413786;32;20605;-45
2021/01/27 09:22:42;;;;;;;;;;;;;;;15.46;36.54;99742.91;4415704;32;19964;-47
2021/01/27 09:25:08;;;;;;;;;;;;;;;15.54;36.46;99740.44;4415581;32;20349;-46
2021/01/27 09:27:34;;;;;;;;;;;;;;;15.53;36.46;99743.91;4412892;32;19970;-45
2021/01/27 09:30:00;;;;;;;;;;;;;;;15.54;36.45;99735.19;4411159;32;19964;-47
2021/01/27 09:32:26;;;;;;;;;;;;;;;15.51;36.50;99740.38;4415069;32;19972;-50
2021/01/27 09:34:52;;;;;;;;;;;;;;;15.49;36.58;99732.47;4416845;32;19962;-47
2021/01/27 09:37:17;;;;;;;;;;;;;;;15.49;36.94;99726.31;4417505;32;19951;-51
2021/01/27 09:39:43;;;;;;;;;;;;;;;14.71;37.65;99735.84;4409650;32;19954;-51
2021/01/27 09:42:09;;;;;;;;;;;;;;;14.99;37.50;99740.91;4410514;32;20394;-51
2021/01/27 09:44:38;;;;;;;;;;;;;;;15.11;37.17;99738.59;4414579;32;19954;-48
2021/01/27 09:47:04;;;;;;;;;;;;;;;15.13;37.12;99738.62;4412011;32;19955;-46
2021/01/27 09:49:30;;;;;;;;;;;;;;;15.26;36.87;99739.81;4412249;32;20005;-46
2021/01/27 09:51:56;;;;;;;;;;;;;;;15.30;36.79;99737.28;4407678;32;19951;-50
2021/01/27 09:54:21;;;;;;;;;;;;;;;15.20;36.97;99739.66;4417180;32;19958;-48
2021/01/27 09:56:47;;;;;;;;;;;;;;;15.31;36.89;99739.06;4406246;32;19997;-48
2021/01/27 09:59:13;;;;;;;;;;;;;;;15.28;37.13;99743.38;4415925;32;19988;-45
2021/01/27 10:01:39;;;;;;;;;;;;;;;15.12;37.60;99737.72;4410480;32;20955;-45
2021/01/27 10:04:05;;;;;;;;;;;;;;;15.18;37.54;99727.41;4416293;32;19954;-48
2021/01/27 10:06:31;;;;;;;;;;;;;;;15.22;37.56;99728.38;4414309;32;19959;-47
2021/01/27 10:08:57;;;;;;;;;;;;;;;15.29;37.57;99713.66;4413480;32;19946;-43
2021/01/27 10:11:23;;;;;;;;;;;;;;;15.31;37.37;99712.84;4407662;32;20515;-48
2021/01/27 10:13:48;;;;;;;;;;;;;;;15.35;37.44;99719.03;4410613;32;19984;-53
2021/01/27 10:16:14;;;;;;;;;;;;;;;15.26;37.86;99721.47;4403822;32;19950;-48
2021/01/27 10:18:40;;;;;;;;;;;;;;;14.94;38.37;99726.81;4413560;32;20627;-45
2021/01/27 10:21:06;;;;;;;;;;;;;;;14.77;38.72;99727.28;4412905;32;19973;-46
2021/01/27 10:23:32;;;;;;;;;;;;;;;14.81;38.63;99725.59;4410962;32;20034;-47
2021/01/27 10:26:00;;;;;;;;;;;;;;;15.00;38.28;99719.97;4404005;32;20040;-49
2021/01/27 10:28:27;;;;;;;;;;;;;;;15.01;38.25;99723.50;4407884;32;19976;-47
2021/01/27 10:30:54;;;;;;;;;;;;;;;15.18;37.91;99730.03;4416113;32;19961;-49
2021/01/27 10:33:19;;;;;;;;;;;;;;;15.31;37.60;99725.97;4411368;32;20013;-49
2021/01/27 10:35:45;;;;;;;;;;;;;;;15.41;37.41;99734.00;4401493;32;19951;-47
2021/01/27 10:38:12;;;;;;;;;;;;;;;15.32;37.51;99732.97;4410639;32;20351;-50
2021/01/27 10:40:38;;;;;;;;;;;;;;;15.24;37.67;99736.25;4406209;32;19977;-49
2021/01/27 10:43:04;;;;;;;;;;;;;;;15.29;37.58;99739.88;4414785;32;20390;-49
2021/01/27 10:45:30;;;;;;;;;;;;;;;15.39;37.38;99747.13;4414990;32;20006;-48
2021/01/27 10:47:56;;;;;;;;;;;;;;;15.45;37.24;99746.38;4417374;32;19998;-48
2021/01/27 10:50:22;;;;;;;;;;;;;;;15.42;37.32;99754.16;4399771;32;19965;-48
2021/01/27 10:52:48;;;;;;;;;;;;;;;15.44;37.25;99745.47;4411558;32;19988;-48
2021/01/27 10:55:15;;;;;;;;;;;;;;;15.54;37.07;99745.69;4416779;32;19969;-51
2021/01/27 10:57:40;;;;;;;;;;;;;;;15.58;36.98;99732.66;4415307;32;20327;-47
2021/01/27 11:00:06;;;;;;;;;;;;;;;15.60;36.91;99730.97;4403103;32;19951;-49
2021/01/27 11:02:32;;;;;;;;;;;;;;;15.64;36.88;99731.91;4400757;32;19958;-46
2021/01/27 11:04:58;;;;;;;;;;;;;;;15.64;36.88;99728.41;4412746;32;19942;-48
2021/01/27 11:07:24;;;;;;;;;;;;;;;15.66;36.80;99709.22;4415747;32;19965;-48
2021/01/27 11:09:50;;;;;;;;;;;;;;;15.67;36.80;99689.97;4405070;32;19974;-49
2021/01/27 11:12:16;;;;;;;;;;;;;;;15.69;36.81;99679.53;4402120;32;20024;-47
2021/01/27 11:14:42;;;;;;;;;;;;;;;15.70;36.77;99669.03;4415200;32;19977;-47
2021/01/27 11:17:07;;;;;;;;;;;;;;;15.70;36.83;99671.66;4416353;32;20365;-50
2021/01/27 11:19:33;;;;;;;;;;;;;;;15.72;36.78;99666.44;4409523;32;19954;-50
2021/01/27 11:21:59;;;;;;;;;;;;;;;15.71;36.81;99676.06;4402601;32;19985;-53
2021/01/27 11:24:25;;;;;;;;;;;;;;;15.73;36.76;99670.84;4407757;32;19992;-46
2021/01/27 11:26:51;;;;;;;;;;;;;;;15.71;36.77;99677.81;4416980;32;20298;-49
2021/01/27 11:29:17;;;;;;;;;;;;;;;15.70;36.83;99673.41;4410797;32;20018;-51
2021/01/27 11:31:43;;;;;;;;;;;;;;;15.74;36.85;99675.25;4401513;32;19950;-50
2021/01/27 11:34:09;;;;;;;;;;;;;;;15.74;36.83;99678.75;4405584;32;19958;-51
2021/01/27 11:36:35;;;;;;;;;;;;;;;15.71;36.79;99676.06;4416662;32;19954;-51
2021/01/27 11:39:00;;;;;;;;;;;;;;;15.71;36.85;99668.19;4415451;32;19954;-49
2021/01/27 11:41:26;;;;;;;;;;;;;;;15.73;36.78;99669.09;4401466;32;19969;-48
2021/01/27 11:43:52;;;;;;;;;;;;;;;15.76;36.72;99662.16;4409090;32;19954;-53
2021/01/27 11:46:18;;;;;;;;;;;;;;;15.72;36.76;99656.81;4414355;32;19962;-49
2021/01/27 11:48:44;;;;;;;;;;;;;;;15.52;37.17;99652.94;4412717;32;20545;-47
2021/01/27 11:51:10;;;;;;;;;;;;;;;15.63;37.06;99646.16;4400624;32;19962;-50
2021/01/27 11:53:36;;;;;;;;;;;;;;;15.75;36.82;99650.75;4411669;32;20393;-47
2021/01/27 11:56:02;;;;;;;;;;;;;;;15.77;36.72;99633.28;4410267;32;19966;-47
2021/01/27 11:58:30;;;;;;;;;;;;;;;15.76;36.77;99628.03;4407195;32;19994;-46
2021/01/27 12:00:56;;;;;;;;;;;;;;;15.78;36.80;99628.94;4411766;32;19954;-49
2021/01/27 12:03:21;;;;;;;;;;;;;;;15.81;36.71;99621.13;4407098;32;20009;-47
2021/01/27 12:05:47;;;;;;;;;;;;;;;15.82;36.68;99615.91;4409715;32;19969;-52
2021/01/27 12:08:15;;;;;;;;;;;;;;;15.83;36.68;99611.53;4410717;32;19957;-47
2021/01/27 12:10:41;;;;;;;;;;;;;;;15.78;36.78;99606.19;4409784;32;19963;-46
2021/01/27 12:13:07;;;;;;;;;;;;;;;15.79;36.75;99604.44;4416118;32;20029;-45
2021/01/27 12:15:33;;;;;;;;;;;;;;;15.78;36.76;99605.31;4410392;32;19961;-45
2021/01/27 12:17:59;;;;;;;;;;;;;;;15.81;36.73;99602.75;4408949;32;19961;-47
2021/01/27 12:20:25;;;;;;;;;;;;;;;15.83;36.68;99601.03;4408304;32;19962;-47
2021/01/27 12:22:51;;;;;;;;;;;;;;;15.86;36.62;99598.44;4407808;32;20278;-45
2021/01/27 12:25:17;;;;;;;;;;;;;;;15.84;36.71;99584.41;4394794;32;19954;-47
2021/01/27 12:27:42;;;;;;;;;;;;;;;15.84;36.65;99576.53;4409619;32;19966;-45
2021/01/27 12:30:08;;;;;;;;;;;;;;;15.85;36.66;99578.28;4409633;32;20012;-45
2021/01/27 12:32:34;;;;;;;;;;;;;;;15.85;36.65;99583.53;4410083;32;20296;-47
2021/01/27 12:35:00;;;;;;;;;;;;;;;15.85;36.63;99587.06;4408178;32;19954;-48